Aaronsburg, Pennsylvania
Current Conditions -  °F | °C
As of 2:53 PM on Wednesday 26 Nov 2014 (Local Time) from KUNV Reporting Station
Light Snow Light Snow  
Wind Chill: 27°   Ceiling: 500
Heat Index: 32°   Visibility: 0.75mi
Dew Point: 30°   Wind: 5mph
Humidity: 93%   Direction: 30°NNE
Pressure: 29.97"   Gusts: NA
Location:  40.9°N, 77.45°W
Report Text: KUNV 261953Z 03004KT 3/4SM -SN BR OVC005 00/M01 A2997
Loading
Personal Weather Stations






























Interactive Weather Map New forecast layout! Learn more

10-Day Weather Forecast

Advertisements
Track Severe Weather on mobile